Izki — V7XV2 — position and weather

sailwx.info

Track history (hours):
 
Tides and Currents Weather Stations Pressure Air Temp Water Temp Dewpoint Dewpoint Depression Visibility Wind Speed Wind Dir Waves Ship Positions

Izki

Last reported at 2017-May-05 13:48 UTC. Time now 2017-May-26 00:03 UTC.
Position N 01°58' E 102°14'.
Warning: this ship's position is 20 days out of date.

Length 333 m; draft 11 m.

Type: Tanker. MMSI: 538004578.

Date/timePositionNaut miles runAvg speedWind from/ knotsBaromVisibWave heightAir tempDewpointWater temp
2017-May-05 13:48N 01°58' E 102°14'514.3
2017-May-05 13:28N 01°55' E 102°17'714.5
2017-May-05 13:00N 01°52' E 102°23'714.5
2017-May-05 12:30N 01°49' E 102°30'1014.0
2017-May-05 11:50N 01°45' E 102°39'513.7
2017-May-05 11:28N 01°43' E 102°43'4413.7
2017-May-05 08:14N 01°18' E 103°20'414.2
2017-May-05 07:59N 01°16' E 103°22'714.2
2017-May-05 07:30N 01°13' E 103°28'714.0
2017-May-05 07:00N 01°11' E 103°35'612.4
2017-May-05 06:30N 01°10' E 103°41'5 9.7
2017-May-05 06:00N 01°09' E 103°46'4 8.6
2017-May-05 05:30N 01°11' E 103°50'3 5.8
2017-May-05 05:00N 01°13' E 103°53'2 3.6
2017-May-05 04:30N 01°14' E 103°54'1 1.4
2017-May-05 04:01N 01°14' E 103°54'0 0.0
2017-May-05 03:25N 01°14' E 103°54'0 0.0
2017-May-05 02:58N 01°14' E 103°54'0 0.0
2017-May-05 02:28N 01°14' E 103°54'0 0.0
2017-May-05 01:58N 01°14' E 103°54'0 0.1
2017-May-05 01:28N 01°14' E 103°54'0 0.1
2017-May-05 00:58N 01°14' E 103°54'0 0.1
2017-May-05 00:29N 01°14' E 103°54'0 0.4
2017-May-04 23:59N 01°14' E 103°54'0 0.2
2017-May-04 23:23N 01°14' E 103°54'0 0.1
2017-May-04 22:41N 01°14' E 103°54'0 0.1
2017-May-04 22:29N 01°14' E 103°54'0 0.0
2017-May-04 21:59N 01°14' E 103°54'0 0.1
2017-May-04 21:28N 01°14' E 103°54'0 0.1
2017-May-04 20:58N 01°14' E 103°54'0 0.0
2017-May-04 20:28N 01°14' E 103°54'0 0.0
2017-May-04 19:58N 01°14' E 103°54'0 0.0
2017-May-04 19:16N 01°14' E 103°54'0 0.2
2017-May-04 18:58N 01°14' E 103°54'0 0.0
2017-May-04 18:25N 01°14' E 103°54'0 0.1
2017-May-04 17:55N 01°14' E 103°54'0 0.0
2017-May-04 17:30N 01°14' E 103°54'0 0.1
2017-May-04 16:54N 01°14' E 103°54'0 0.1
2017-May-04 16:27N 01°14' E 103°54'0 0.0
2017-May-04 16:00N 01°14' E 103°54'0 0.1
2017-May-04 15:21N 01°14' E 103°54'0 0.0
2017-May-04 14:57N 01°14' E 103°54'0 0.0
2017-May-04 14:00N 01°14' E 103°54'0 0.0
2017-May-04 13:30N 01°14' E 103°54'0 0.1
2017-May-04 13:00N 01°14' E 103°54'0 0.1
2017-May-04 12:24N 01°14' E 103°54'0 0.0
2017-May-04 12:00N 01°14' E 103°54'0 0.1
2017-May-04 11:30N 01°14' E 103°54'0 0.1
2017-May-04 11:00N 01°14' E 103°54'0 0.0
2017-May-04 10:30N 01°14' E 103°54'0 0.0
2017-May-04 09:54N 01°14' E 103°54'0 0.0
2017-May-04 09:30N 01°14' E 103°54'0 0.2
2017-May-04 09:00N 01°14' E 103°54'0 0.2
2017-May-04 08:30N 01°14' E 103°54'0 0.1
2017-May-04 07:55N 01°14' E 103°54'1 2.8
2017-May-04 07:30N 01°15' E 103°55'2 4.5
2017-May-04 07:00N 01°15' E 103°58'1 2.3
2017-May-04 06:30N 01°16' E 103°59'1 1.6
2017-May-04 06:00N 01°16' E 103°59'1 2.7
2017-May-04 05:31N 01°16' E 104°01'2 4.7
2017-May-04 05:01N 01°16' E 104°03'2 4.8
2017-May-04 04:30N 01°16' E 104°05'6 9.4
2017-May-04 03:55N 01°17' E 104°11'  
2017-Apr-25 20:11N 37°06' E 123°29'211.2
2017-Apr-25 20:00N 37°08' E 123°28'611.2
2017-Apr-25 19:30N 37°14' E 123°26'711.5
2017-Apr-25 18:52N 37°21' E 123°23'411.9
2017-Apr-25 18:30N 37°25' E 123°22'1212.5
2017-Apr-25 17:32N 37°37' E 123°18'012.6
2017-Apr-25 17:30N 37°37' E 123°18'2512.6
2017-Apr-25 15:30N 37°55' E 122°56'1513.1
2017-Apr-25 14:23N 38°06' E 122°44'  
Track history (hours):
 
Tides and Currents Weather Stations Pressure Air Temp Water Temp Dewpoint Dewpoint Depression Visibility Wind Speed Wind Dir Waves Ship Positions

Izki

Last reported at 2017-May-05 13:48 UTC. Time now 2017-May-26 00:03 UTC.
Position N 01°58' E 102°14'.
Warning: this ship's position is 20 days out of date.

Length 333 m; draft 11 m.

Type: Tanker. MMSI: 538004578.

Date/timePositionNaut miles runAvg speedWind from/ knotsBaromVisibWave heightAir tempDewpointWater temp
2017-May-05 13:48N 01°58' E 102°14'514.3
2017-May-05 13:28N 01°55' E 102°17'714.5
2017-May-05 13:00N 01°52' E 102°23'714.5
2017-May-05 12:30N 01°49' E 102°30'1014.0
2017-May-05 11:50N 01°45' E 102°39'513.7
2017-May-05 11:28N 01°43' E 102°43'4413.7
2017-May-05 08:14N 01°18' E 103°20'414.2
2017-May-05 07:59N 01°16' E 103°22'714.2
2017-May-05 07:30N 01°13' E 103°28'714.0
2017-May-05 07:00N 01°11' E 103°35'612.4
2017-May-05 06:30N 01°10' E 103°41'5 9.7
2017-May-05 06:00N 01°09' E 103°46'4 8.6
2017-May-05 05:30N 01°11' E 103°50'3 5.8
2017-May-05 05:00N 01°13' E 103°53'2 3.6
2017-May-05 04:30N 01°14' E 103°54'1 1.4
2017-May-05 04:01N 01°14' E 103°54'0 0.0
2017-May-05 03:25N 01°14' E 103°54'0 0.0
2017-May-05 02:58N 01°14' E 103°54'0 0.0
2017-May-05 02:28N 01°14' E 103°54'0 0.0
2017-May-05 01:58N 01°14' E 103°54'0 0.1
2017-May-05 01:28N 01°14' E 103°54'0 0.1
2017-May-05 00:58N 01°14' E 103°54'0 0.1
2017-May-05 00:29N 01°14' E 103°54'0 0.4
2017-May-04 23:59N 01°14' E 103°54'0 0.2
2017-May-04 23:23N 01°14' E 103°54'0 0.1
2017-May-04 22:41N 01°14' E 103°54'0 0.1
2017-May-04 22:29N 01°14' E 103°54'0 0.0
2017-May-04 21:59N 01°14' E 103°54'0 0.1
2017-May-04 21:28N 01°14' E 103°54'0 0.1
2017-May-04 20:58N 01°14' E 103°54'0 0.0
2017-May-04 20:28N 01°14' E 103°54'0 0.0
2017-May-04 19:58N 01°14' E 103°54'0 0.0
2017-May-04 19:16N 01°14' E 103°54'0 0.2
2017-May-04 18:58N 01°14' E 103°54'0 0.0
2017-May-04 18:25N 01°14' E 103°54'0 0.1
2017-May-04 17:55N 01°14' E 103°54'0 0.0
2017-May-04 17:30N 01°14' E 103°54'0 0.1
2017-May-04 16:54N 01°14' E 103°54'0 0.1
2017-May-04 16:27N 01°14' E 103°54'0 0.0
2017-May-04 16:00N 01°14' E 103°54'0 0.1
2017-May-04 15:21N 01°14' E 103°54'0 0.0
2017-May-04 14:57N 01°14' E 103°54'0 0.0
2017-May-04 14:00N 01°14' E 103°54'0 0.0
2017-May-04 13:30N 01°14' E 103°54'0 0.1
2017-May-04 13:00N 01°14' E 103°54'0 0.1
2017-May-04 12:24N 01°14' E 103°54'0 0.0
2017-May-04 12:00N 01°14' E 103°54'0 0.1
2017-May-04 11:30N 01°14' E 103°54'0 0.1
2017-May-04 11:00N 01°14' E 103°54'0 0.0
2017-May-04 10:30N 01°14' E 103°54'0 0.0
2017-May-04 09:54N 01°14' E 103°54'0 0.0
2017-May-04 09:30N 01°14' E 103°54'0 0.2
2017-May-04 09:00N 01°14' E 103°54'0 0.2
2017-May-04 08:30N 01°14' E 103°54'0 0.1
2017-May-04 07:55N 01°14' E 103°54'1 2.8
2017-May-04 07:30N 01°15' E 103°55'2 4.5
2017-May-04 07:00N 01°15' E 103°58'1 2.3
2017-May-04 06:30N 01°16' E 103°59'1 1.6
2017-May-04 06:00N 01°16' E 103°59'1 2.7
2017-May-04 05:31N 01°16' E 104°01'2 4.7
2017-May-04 05:01N 01°16' E 104°03'2 4.8
2017-May-04 04:30N 01°16' E 104°05'6 9.4
2017-May-04 03:55N 01°17' E 104°11'  
2017-Apr-25 20:11N 37°06' E 123°29'211.2
2017-Apr-25 20:00N 37°08' E 123°28'611.2
2017-Apr-25 19:30N 37°14' E 123°26'711.5
2017-Apr-25 18:52N 37°21' E 123°23'411.9
2017-Apr-25 18:30N 37°25' E 123°22'1212.5
2017-Apr-25 17:32N 37°37' E 123°18'012.6
2017-Apr-25 17:30N 37°37' E 123°18'2512.6
2017-Apr-25 15:30N 37°55' E 122°56'1513.1
2017-Apr-25 14:23N 38°06' E 122°44'  

Dump ship's entire track history